Mbabane, Swaziland
Current Conditions -  °F | °C
As of 7:00 AM on Saturday 29 Nov 2014 (Local Time) from FAKN Reporting Station
Overcast Overcast  
Wind Chill: 64°   Ceiling: 5000
Heat Index: 64°   Visibility: 6mi
Dew Point: 52°   Wind: 7mph
Humidity: 64%   Direction: 140°SE
Pressure: 30.21"   Gusts: NA
Location:  26.32°S, 31.14°E
Report Text: FAKN 290500Z 14006KT 9999 SCT015 OVC050 18/11 Q1023 NOSIG
Loading
Personal Weather Stations






























Interactive Weather Map New forecast layout! Learn more

10-Day Weather Forecast

Advertisements
Track Severe Weather on mobile